createdAt,value
2022-11-12T00:02:00.697Z,21.15
2022-11-12T00:04:46.567Z,23.30
2022-11-12T00:07:32.469Z,20.92
2022-11-12T00:10:18.303Z,23.62
2022-11-12T00:13:04.257Z,20.25
2022-11-12T00:15:50.219Z,25.30
2022-11-12T00:18:36.116Z,23.77
2022-11-12T00:21:21.930Z,21.52
2022-11-12T00:24:07.612Z,20.77
2022-11-12T00:26:53.351Z,20.80
2022-11-12T00:29:39.030Z,23.52
2022-11-12T00:32:25.045Z,22.20
2022-11-12T00:35:14.024Z,20.35
2022-11-12T00:38:01.032Z,22.55
2022-11-12T00:40:47.196Z,23.33
2022-11-12T00:43:33.193Z,21.15
2022-11-12T00:46:19.176Z,24.42
2022-11-12T00:49:04.850Z,21.42
2022-11-12T00:51:50.697Z,20.65
2022-11-12T00:54:36.302Z,25.45
2022-11-12T00:57:22.235Z,26.30
2022-11-12T01:00:08.813Z,22.60
2022-11-12T01:02:54.422Z,22.15
2022-11-12T01:05:40.266Z,21.98
2022-11-12T01:08:26.465Z,20.02
2022-11-12T01:11:16.240Z,19.70
2022-11-12T01:14:05.470Z,20.62
2022-11-12T01:16:51.388Z,21.50
2022-11-12T01:19:37.166Z,19.87
2022-11-12T01:22:23.453Z,21.90
2022-11-12T01:25:09.259Z,22.45
2022-11-12T01:27:54.936Z,19.65
2022-11-12T01:30:40.672Z,21.92
2022-11-12T01:33:26.708Z,23.95
2022-11-12T01:36:14.694Z,22.48
2022-11-12T01:39:00.836Z,21.75
2022-11-12T01:41:46.988Z,23.85
2022-11-12T01:44:35.042Z,22.13
2022-11-12T01:47:33.216Z,22.58
2022-11-12T01:50:31.460Z,22.20
2022-11-12T01:53:17.630Z,22.17
2022-11-12T01:56:04.982Z,22.02
2022-11-12T01:58:55.801Z,20.40
2022-11-12T02:01:42.210Z,19.70
2022-11-12T02:04:28.482Z,21.87
2022-11-12T02:07:14.688Z,21.15
2022-11-12T02:10:02.356Z,21.73
2022-11-12T02:13:08.431Z,20.17
2022-11-12T02:15:54.278Z,21.30
2022-11-12T02:18:40.173Z,25.50
2022-11-12T02:21:27.113Z,20.98
2022-11-12T02:24:12.745Z,20.25
2022-11-12T02:26:58.589Z,23.50
2022-11-12T02:29:47.520Z,21.83
2022-11-12T02:32:33.204Z,25.37
2022-11-12T02:35:19.177Z,22.37
2022-11-12T02:38:05.776Z,20.95
2022-11-12T02:40:51.982Z,21.35
2022-11-12T02:43:37.999Z,22.37
2022-11-12T02:46:23.868Z,20.73
2022-11-12T02:49:09.790Z,23.75
2022-11-12T02:51:55.748Z,24.58
2022-11-12T02:54:41.315Z,20.35
2022-11-12T02:57:27.363Z,23.35
2022-11-12T03:00:13.997Z,28.35
2022-11-12T03:02:59.924Z,29.05
2022-11-12T03:05:46.451Z,26.90
2022-11-12T03:08:32.273Z,24.90
2022-11-12T03:11:18.421Z,25.73
2022-11-12T03:14:04.956Z,25.02
2022-11-12T03:16:50.982Z,22.95
2022-11-12T03:19:36.633Z,24.75
2022-11-12T03:22:22.391Z,29.35
2022-11-12T03:25:09.277Z,26.62
2022-11-12T03:28:04.440Z,27.13
2022-11-12T03:30:50.318Z,32.05
2022-11-12T03:33:36.292Z,27.60
2022-11-12T03:36:22.044Z,27.33
2022-11-12T03:39:07.969Z,27.33
2022-11-12T03:41:54.062Z,27.95
2022-11-12T03:44:39.770Z,27.52
2022-11-12T03:47:25.517Z,28.67
2022-11-12T03:50:13.017Z,26.80
2022-11-12T03:52:59.756Z,29.40
2022-11-12T03:55:45.963Z,27.85
2022-11-12T03:58:32.147Z,24.83
2022-11-12T04:01:17.912Z,26.95
2022-11-12T04:04:04.301Z,28.52
2022-11-12T04:07:08.334Z,25.80
2022-11-12T04:09:54.269Z,25.60
2022-11-12T04:12:58.605Z,22.90
2022-11-12T04:15:44.510Z,27.08
2022-11-12T04:18:48.643Z,26.95
2022-11-12T04:21:56.529Z,24.83
2022-11-12T04:25:01.304Z,25.12
2022-11-12T04:27:47.333Z,26.02
2022-11-12T04:30:33.178Z,23.33
2022-11-12T04:33:18.907Z,23.12
2022-11-12T04:36:05.040Z,24.58
2022-11-12T04:38:50.631Z,22.30
2022-11-12T04:41:54.730Z,23.48
2022-11-12T04:45:00.907Z,27.42
2022-11-12T04:50:32.303Z,22.92
2022-11-12T04:53:18.019Z,23.80
2022-11-12T04:56:04.176Z,25.98
2022-11-12T04:58:50.093Z,25.15
2022-11-12T05:01:35.906Z,25.42
2022-11-12T05:04:22.074Z,23.42
2022-11-12T05:07:07.865Z,25.73
2022-11-12T05:09:54.065Z,24.00
2022-11-12T05:12:39.867Z,23.50
2022-11-12T05:15:26.060Z,27.27
2022-11-12T05:18:12.037Z,24.80
2022-11-12T05:20:57.897Z,23.67
2022-11-12T05:23:43.620Z,25.95
2022-11-12T05:26:30.457Z,24.83
2022-11-12T05:29:16.589Z,25.27
2022-11-12T05:32:02.422Z,27.05
2022-11-12T05:34:48.321Z,30.92
2022-11-12T05:37:34.283Z,30.62
2022-11-12T05:40:20.333Z,30.15
2022-11-12T05:43:05.956Z,29.55
2022-11-12T05:45:51.589Z,26.08
2022-11-12T05:48:37.327Z,27.80
2022-11-12T05:51:23.283Z,26.23
2022-11-12T05:54:09.238Z,26.23
2022-11-12T05:56:54.843Z,27.25
2022-11-12T05:59:40.851Z,26.37
2022-11-12T06:02:26.487Z,27.23
2022-11-12T06:05:12.592Z,24.05
2022-11-12T06:07:58.434Z,22.83
2022-11-12T06:10:49.226Z,24.30
2022-11-12T06:13:34.888Z,25.20
2022-11-12T06:16:20.689Z,28.90
2022-11-12T06:19:06.404Z,24.23
2022-11-12T06:21:52.149Z,24.12
2022-11-12T06:24:38.282Z,27.55
2022-11-12T06:27:24.319Z,27.27
2022-11-12T06:30:10.733Z,27.67
2022-11-12T06:32:56.709Z,30.37
2022-11-12T06:35:43.299Z,26.20
2022-11-12T06:38:30.693Z,28.48
2022-11-12T06:41:16.737Z,28.08
2022-11-12T06:44:04.684Z,29.12
2022-11-12T06:46:51.094Z,29.50
2022-11-12T06:49:37.259Z,28.52
2022-11-12T06:52:23.178Z,25.70
2022-11-12T06:55:09.213Z,29.17
2022-11-12T06:57:55.134Z,29.42
2022-11-12T07:00:41.189Z,28.62
2022-11-12T07:03:26.871Z,29.35
2022-11-12T07:06:15.128Z,30.10
2022-11-12T07:09:00.851Z,29.65
2022-11-12T07:11:46.751Z,30.02
2022-11-12T07:14:32.312Z,29.92
2022-11-12T07:17:18.257Z,29.42
2022-11-12T07:20:04.386Z,36.15
2022-11-12T07:22:50.129Z,35.30
2022-11-12T07:25:35.886Z,37.80
2022-11-12T07:28:21.524Z,38.55
2022-11-12T07:31:09.804Z,32.78
2022-11-12T07:33:55.719Z,35.00
2022-11-12T07:36:41.643Z,36.55
2022-11-12T07:39:27.617Z,34.97
2022-11-12T07:42:13.363Z,32.03
2022-11-12T07:44:59.103Z,31.77
2022-11-12T07:47:44.894Z,33.15
2022-11-12T07:50:30.615Z,30.95
2022-11-12T07:53:16.351Z,28.30
2022-11-12T07:56:04.502Z,30.90
2022-11-12T07:58:53.449Z,27.77
2022-11-12T08:01:40.820Z,33.92
2022-11-12T08:04:26.886Z,31.75
2022-11-12T08:07:12.912Z,33.00
2022-11-12T08:09:59.129Z,29.50
2022-11-12T08:12:44.942Z,30.40
2022-11-12T08:15:30.741Z,32.95
2022-11-12T08:18:16.700Z,29.05
2022-11-12T08:21:04.237Z,30.58
2022-11-12T08:23:50.178Z,26.65
2022-11-12T08:26:36.170Z,27.02
2022-11-12T08:29:23.329Z,26.70
2022-11-12T08:32:09.192Z,28.02
2022-11-12T08:34:54.966Z,24.55
2022-11-12T08:37:40.825Z,29.37
2022-11-12T08:40:27.799Z,23.45
2022-11-12T08:43:13.839Z,27.95
2022-11-12T08:46:00.473Z,29.70
2022-11-12T08:48:47.653Z,29.40
2022-11-12T08:51:33.288Z,31.05
2022-11-12T08:54:18.952Z,28.00
2022-11-12T08:57:05.126Z,34.05
2022-11-12T08:59:50.917Z,31.92
2022-11-12T09:02:36.747Z,29.52
2022-11-12T09:05:22.839Z,34.42
2022-11-12T09:08:14.072Z,33.50
2022-11-12T09:10:59.953Z,32.97
2022-11-12T09:13:45.761Z,31.77
2022-11-12T09:16:32.135Z,32.20
2022-11-12T09:19:17.820Z,28.87
2022-11-12T09:22:04.213Z,31.20
2022-11-12T09:24:50.332Z,34.10
2022-11-12T09:27:36.204Z,31.55
2022-11-12T09:30:22.681Z,32.20
2022-11-12T09:33:09.035Z,32.10
2022-11-12T09:35:55.025Z,35.72
2022-11-12T09:38:41.115Z,34.53
2022-11-12T09:41:32.463Z,33.22
2022-11-12T09:44:20.823Z,34.53
2022-11-12T09:47:24.713Z,32.55
2022-11-12T09:50:18.881Z,32.65
2022-11-12T09:53:19.457Z,29.48
2022-11-12T09:56:08.309Z,31.65
2022-11-12T09:58:54.182Z,31.58
2022-11-12T10:02:00.165Z,40.83
2022-11-12T10:05:17.401Z,36.53
2022-11-12T10:08:39.719Z,31.17
2022-11-12T10:12:04.632Z,33.90
2022-11-12T10:15:36.898Z,33.85
2022-11-12T10:18:32.370Z,34.60
2022-11-12T10:21:24.364Z,33.15
2022-11-12T10:24:11.134Z,29.25
2022-11-12T10:26:58.552Z,29.12
2022-11-12T10:29:53.551Z,25.42
2022-11-12T10:32:43.010Z,26.35
2022-11-12T10:35:31.370Z,30.52
2022-11-12T10:38:22.468Z,26.65
2022-11-12T10:41:20.517Z,28.48
2022-11-12T10:44:07.348Z,25.98
2022-11-12T10:47:18.518Z,28.67
2022-11-12T10:50:10.996Z,26.65
2022-11-12T10:53:01.032Z,24.50
2022-11-12T10:55:58.509Z,26.15
2022-11-12T10:58:44.453Z,25.95
2022-11-12T11:01:35.422Z,26.33
2022-11-12T11:04:31.613Z,28.15
2022-11-12T11:07:22.173Z,26.08
2022-11-12T11:10:27.155Z,26.83
2022-11-12T11:13:23.044Z,24.87
2022-11-12T11:16:13.038Z,24.52
2022-11-12T11:19:09.365Z,25.83
2022-11-12T11:22:04.510Z,23.00
2022-11-12T11:24:59.897Z,27.13
2022-11-12T11:28:08.730Z,27.33
2022-11-12T11:31:02.175Z,23.17
2022-11-12T11:34:08.815Z,23.55
2022-11-12T11:37:20.683Z,24.92
2022-11-12T11:40:12.449Z,22.23
2022-11-12T11:43:22.700Z,26.12
2022-11-12T11:46:17.450Z,24.80
2022-11-12T11:49:17.252Z,21.20
2022-11-12T11:52:34.443Z,21.30
2022-11-12T11:55:42.539Z,30.15
2022-11-12T11:58:53.916Z,21.10
2022-11-12T12:01:58.289Z,24.33
2022-11-12T12:04:52.211Z,20.73
2022-11-12T12:07:49.318Z,23.80
2022-11-12T12:11:07.485Z,19.95
2022-11-12T12:14:15.694Z,17.90
2022-11-12T12:17:17.767Z,19.70
2022-11-12T12:20:14.541Z,19.42
2022-11-12T12:23:05.113Z,20.25
2022-11-12T12:25:57.385Z,19.90
2022-11-12T12:29:12.474Z,25.55
2022-11-12T12:32:24.102Z,22.42
2022-11-12T12:35:21.827Z,26.25
2022-11-12T12:38:18.945Z,29.23
2022-11-12T12:41:28.045Z,26.20
2022-11-12T12:44:13.810Z,27.23
2022-11-12T12:47:01.026Z,29.48
2022-11-12T12:49:47.981Z,28.77
2022-11-12T12:53:00.261Z,25.05
2022-11-12T12:55:50.314Z,24.00
2022-11-12T12:58:48.671Z,27.33
2022-11-12T13:01:35.800Z,26.67
2022-11-12T13:04:52.554Z,26.80
2022-11-12T13:07:40.938Z,24.17
2022-11-12T13:10:41.771Z,24.87
2022-11-12T13:13:32.425Z,28.45
2022-11-12T13:16:47.882Z,26.92
2022-11-12T13:19:39.392Z,25.77
2022-11-12T13:22:24.936Z,25.05
2022-11-12T13:25:10.967Z,25.88
2022-11-12T13:28:02.840Z,44.70
2022-11-12T13:30:48.264Z,35.70
2022-11-12T13:33:35.756Z,31.85
2022-11-12T13:36:27.248Z,26.20
2022-11-12T13:39:19.104Z,26.17
2022-11-12T13:42:32.180Z,28.95
2022-11-12T13:45:26.505Z,25.17
2022-11-12T13:48:20.505Z,26.30
2022-11-12T13:51:13.252Z,24.58
2022-11-12T13:53:59.059Z,21.25
2022-11-12T13:56:45.065Z,23.02
2022-11-12T13:59:31.064Z,22.25
2022-11-12T14:02:20.926Z,22.90
2022-11-12T14:05:18.857Z,21.50
2022-11-12T14:08:23.960Z,18.27
2022-11-12T14:11:28.392Z,19.33
2022-11-12T14:14:55.503Z,19.48
2022-11-12T14:18:13.335Z,21.75
2022-11-12T14:21:05.404Z,20.67
2022-11-12T14:23:51.082Z,19.60
2022-11-12T14:26:43.378Z,19.17
2022-11-12T14:29:34.592Z,16.23
2022-11-12T14:32:21.318Z,19.52
2022-11-12T14:35:23.084Z,19.42
2022-11-12T14:38:14.457Z,19.25
2022-11-12T14:41:20.448Z,19.08
2022-11-12T14:44:13.894Z,18.48
2022-11-12T14:47:00.499Z,18.35
2022-11-12T14:49:48.192Z,19.20
2022-11-12T14:52:42.033Z,18.60
2022-11-12T14:55:32.663Z,18.67
2022-11-12T14:58:19.642Z,17.27
2022-11-12T15:01:55.683Z,21.92
2022-11-12T15:04:26.188Z,22.08
2022-11-12T15:07:34.282Z,20.58
2022-11-12T15:10:32.589Z,21.45
2022-11-12T15:13:20.185Z,22.73
2022-11-12T15:16:07.501Z,22.25
2022-11-12T15:19:15.553Z,23.65
2022-11-12T15:22:02.975Z,27.27
2022-11-12T15:24:49.676Z,29.67
2022-11-12T15:27:41.218Z,22.45
2022-11-12T15:30:31.921Z,23.08
2022-11-12T15:33:21.999Z,27.13
2022-11-12T15:36:18.934Z,25.40
2022-11-12T15:39:12.431Z,27.62
2022-11-12T15:42:03.680Z,24.70
2022-11-12T15:44:50.030Z,22.92
2022-11-12T15:47:35.775Z,27.00
2022-11-12T15:50:25.182Z,28.85
2022-11-12T15:53:11.097Z,25.95
2022-11-12T15:55:57.092Z,29.37
2022-11-12T15:58:42.856Z,45.25
2022-11-12T16:01:29.111Z,39.97
2022-11-12T16:04:15.152Z,34.67
2022-11-12T16:07:00.771Z,31.55
2022-11-12T16:09:47.152Z,27.42
2022-11-12T16:12:32.843Z,32.35
2022-11-12T16:15:20.683Z,31.52
2022-11-12T16:18:10.056Z,38.88
2022-11-12T16:20:56.098Z,39.25
2022-11-12T16:23:41.768Z,50.47
2022-11-12T16:26:29.357Z,49.60
2022-11-12T16:29:15.354Z,52.20
2022-11-12T16:32:02.098Z,55.30
2022-11-12T16:34:47.785Z,59.95
2022-11-12T16:37:33.761Z,62.55
2022-11-12T16:40:23.391Z,77.50
2022-11-12T16:43:09.133Z,62.55
2022-11-12T16:45:55.080Z,75.43
2022-11-12T16:48:40.588Z,66.28
2022-11-12T16:51:26.403Z,62.97
2022-11-12T16:54:12.556Z,65.30
2022-11-12T16:56:58.414Z,68.40
2022-11-12T16:59:45.174Z,70.87
2022-11-12T17:02:31.476Z,58.03
2022-11-12T17:05:24.913Z,66.60
2022-11-12T17:08:11.082Z,65.28
2022-11-12T17:10:57.032Z,61.00
2022-11-12T17:13:43.580Z,58.58
2022-11-12T17:16:29.959Z,59.35
2022-11-12T17:19:15.902Z,58.53
2022-11-12T17:22:01.557Z,58.67
2022-11-12T17:24:47.280Z,57.05
2022-11-12T17:27:33.384Z,55.38
2022-11-12T17:30:19.204Z,54.00
2022-11-12T17:33:05.226Z,55.88
2022-11-12T17:35:51.586Z,50.75
2022-11-12T17:38:38.522Z,59.08
2022-11-12T17:41:26.396Z,69.50
2022-11-12T17:44:17.264Z,78.45
2022-11-12T17:47:03.219Z,76.82
2022-11-12T17:49:49.318Z,88.68
2022-11-12T17:52:35.502Z,89.37
2022-11-12T17:55:21.564Z,85.62
2022-11-12T17:58:08.335Z,92.32
2022-11-12T18:00:54.538Z,83.12
2022-11-12T18:03:42.453Z,85.97
2022-11-12T18:06:32.232Z,79.97
2022-11-12T18:09:19.000Z,68.10
2022-11-12T18:12:05.569Z,70.70
2022-11-12T18:14:51.421Z,68.78
2022-11-12T18:17:37.557Z,59.67
2022-11-12T18:20:23.814Z,57.88
2022-11-12T18:23:11.001Z,61.20
2022-11-12T18:25:56.948Z,55.00
2022-11-12T18:28:42.951Z,51.53
2022-11-12T18:31:29.357Z,45.92
2022-11-12T18:34:15.730Z,46.67
2022-11-12T18:37:02.304Z,52.30
2022-11-12T18:39:48.573Z,54.33
2022-11-12T18:42:34.700Z,53.25
2022-11-12T18:45:21.161Z,50.53
2022-11-12T18:48:07.629Z,53.20
2022-11-12T18:51:01.349Z,48.08
2022-11-12T18:53:48.948Z,50.23
2022-11-12T18:56:38.310Z,49.78
2022-11-12T18:59:30.486Z,70.37
2022-11-12T19:02:16.688Z,62.42
2022-11-12T19:05:03.910Z,60.63
2022-11-12T19:07:50.199Z,56.95
2022-11-12T19:10:37.252Z,55.38
2022-11-12T19:13:23.417Z,59.65
2022-11-12T19:16:11.902Z,155.40
2022-11-12T19:18:57.713Z,75.60
2022-11-12T19:21:43.697Z,96.30
2022-11-12T19:24:30.713Z,81.60
2022-11-12T19:27:16.460Z,87.57
2022-11-12T19:30:03.565Z,65.35
2022-11-12T19:32:49.859Z,65.07
2022-11-12T19:35:35.880Z,63.95
2022-11-12T19:38:21.882Z,74.25
2022-11-12T19:41:18.800Z,81.72
2022-11-12T19:44:06.103Z,102.53
2022-11-12T19:46:52.598Z,99.90
2022-11-12T19:49:38.410Z,107.28
2022-11-12T19:52:24.532Z,99.62
2022-11-12T19:55:10.398Z,101.47
2022-11-12T19:57:56.498Z,130.70
2022-11-12T20:00:43.088Z,113.20
2022-11-12T20:03:30.081Z,127.62
2022-11-12T20:06:18.832Z,119.65
2022-11-12T20:09:05.045Z,123.85
2022-11-12T20:11:51.191Z,123.50
2022-11-12T20:14:37.196Z,113.15
2022-11-12T20:17:23.407Z,110.78
2022-11-12T20:20:10.430Z,104.65
2022-11-12T20:22:57.487Z,103.78
2022-11-12T20:25:43.404Z,110.22
2022-11-12T20:28:29.938Z,106.97
2022-11-12T20:31:21.392Z,95.25
2022-11-12T20:34:07.876Z,97.35
2022-11-12T20:36:54.871Z,102.57
2022-11-12T20:39:40.812Z,97.07
2022-11-12T20:42:27.066Z,104.55
2022-11-12T20:45:12.940Z,111.72
2022-11-12T20:47:59.275Z,101.10
2022-11-12T20:51:09.425Z,111.40
2022-11-12T20:53:58.975Z,109.97
2022-11-12T20:56:46.495Z,100.00
2022-11-12T20:59:32.134Z,95.05
2022-11-12T21:02:18.284Z,93.45
2022-11-12T21:05:04.871Z,101.15
2022-11-12T21:07:50.987Z,103.57
2022-11-12T21:10:37.333Z,101.28
2022-11-12T21:13:24.249Z,92.47
2022-11-12T21:16:11.587Z,88.20
2022-11-12T21:19:01.806Z,97.40
2022-11-12T21:21:47.860Z,97.22
2022-11-12T21:24:33.606Z,92.90
2022-11-12T21:27:20.577Z,92.85
2022-11-12T21:30:07.491Z,96.00
2022-11-12T21:32:53.702Z,94.28
2022-11-12T21:35:40.174Z,82.50
2022-11-12T21:38:27.619Z,74.57
2022-11-12T21:41:17.526Z,77.15
2022-11-12T21:44:03.563Z,65.70
2022-11-12T21:46:49.234Z,66.22
2022-11-12T21:49:35.172Z,71.72
2022-11-12T21:52:20.861Z,53.63
2022-11-12T21:55:07.128Z,56.40
2022-11-12T21:57:52.782Z,58.38
2022-11-12T22:00:42.726Z,61.50
2022-11-12T22:03:32.288Z,54.03
2022-11-12T22:06:19.241Z,53.67
2022-11-12T22:09:06.079Z,50.42
2022-11-12T22:11:52.081Z,54.42
2022-11-12T22:14:38.065Z,50.92
2022-11-12T22:17:23.663Z,49.10
2022-11-12T22:20:09.755Z,52.72
2022-11-12T22:22:55.657Z,69.62
2022-11-12T22:25:41.495Z,61.65
2022-11-12T22:28:27.957Z,56.58
2022-11-12T22:31:16.645Z,60.10
2022-11-12T22:34:02.819Z,55.90
2022-11-12T22:36:48.756Z,53.97
2022-11-12T22:39:34.339Z,55.75
2022-11-12T22:42:20.063Z,60.72
2022-11-12T22:45:06.370Z,57.20
2022-11-12T22:47:52.311Z,52.40
2022-11-12T22:50:38.011Z,57.25
2022-11-12T22:53:24.151Z,50.50
2022-11-12T22:56:15.078Z,52.45
2022-11-12T22:59:03.486Z,50.25
2022-11-12T23:01:49.540Z,56.40
2022-11-12T23:04:35.472Z,54.63
2022-11-12T23:07:21.181Z,52.95
2022-11-12T23:10:07.739Z,50.72
2022-11-12T23:12:53.503Z,52.22
2022-11-12T23:15:42.727Z,46.85
2022-11-12T23:18:28.794Z,52.65
2022-11-12T23:21:17.191Z,63.50
2022-11-12T23:24:02.756Z,53.78
2022-11-12T23:26:48.627Z,54.22
2022-11-12T23:29:34.396Z,54.17
2022-11-12T23:32:20.032Z,55.30
2022-11-12T23:35:06.093Z,55.03
2022-11-12T23:37:54.914Z,58.60
2022-11-12T23:40:40.888Z,49.40
2022-11-12T23:43:26.882Z,45.83
2022-11-12T23:46:12.737Z,45.33
2022-11-12T23:48:58.662Z,46.33
2022-11-12T23:51:44.369Z,44.88
2022-11-12T23:54:30.368Z,47.88
2022-11-12T23:57:16.099Z,42.35
